sensor_id;sensor_type;location;lat;lon;timestamp;P1;durP1;ratioP1;P2;durP2;ratioP2
48002;SDS011;33768;48.578;11.574;2023-04-03T00:01:47;2.43;;;2.10;;
48002;SDS011;33768;48.578;11.574;2023-04-03T00:04:51;4.27;;;2.07;;
48002;SDS011;33768;48.578;11.574;2023-04-03T00:07:55;2.93;;;2.03;;
48002;SDS011;33768;48.578;11.574;2023-04-03T00:10:59;2.87;;;2.23;;
48002;SDS011;33768;48.578;11.574;2023-04-03T00:14:03;2.40;;;1.80;;
48002;SDS011;33768;48.578;11.574;2023-04-03T00:17:07;3.73;;;2.30;;
48002;SDS011;33768;48.578;11.574;2023-04-03T00:20:11;2.60;;;2.03;;
48002;SDS011;33768;48.578;11.574;2023-04-03T00:23:16;3.47;;;2.30;;
48002;SDS011;33768;48.578;11.574;2023-04-03T00:26:20;2.93;;;2.13;;
48002;SDS011;33768;48.578;11.574;2023-04-03T00:29:24;3.83;;;2.10;;
48002;SDS011;33768;48.578;11.574;2023-04-03T00:32:28;3.60;;;2.13;;
48002;SDS011;33768;48.578;11.574;2023-04-03T00:35:33;2.17;;;1.90;;
48002;SDS011;33768;48.578;11.574;2023-04-03T00:38:38;3.57;;;2.00;;
48002;SDS011;33768;48.578;11.574;2023-04-03T00:41:43;3.67;;;2.07;;
48002;SDS011;33768;48.578;11.574;2023-04-03T00:47:51;4.97;;;2.30;;
48002;SDS011;33768;48.578;11.574;2023-04-03T00:50:55;2.33;;;2.07;;
48002;SDS011;33768;48.578;11.574;2023-04-03T00:54:00;3.53;;;2.13;;
48002;SDS011;33768;48.578;11.574;2023-04-03T00:57:08;2.63;;;2.10;;
48002;SDS011;33768;48.578;11.574;2023-04-03T01:00:14;2.33;;;2.13;;
48002;SDS011;33768;48.578;11.574;2023-04-03T01:03:21;2.10;;;1.90;;
48002;SDS011;33768;48.578;11.574;2023-04-03T01:06:27;2.10;;;1.80;;
48002;SDS011;33768;48.578;11.574;2023-04-03T01:09:42;2.43;;;1.90;;
48002;SDS011;33768;48.578;11.574;2023-04-03T01:12:49;4.73;;;2.20;;
48002;SDS011;33768;48.578;11.574;2023-04-03T01:15:54;2.63;;;1.90;;
48002;SDS011;33768;48.578;11.574;2023-04-03T01:18:59;3.53;;;2.00;;
48002;SDS011;33768;48.578;11.574;2023-04-03T01:22:11;2.63;;;2.17;;
48002;SDS011;33768;48.578;11.574;2023-04-03T01:25:23;2.07;;;1.80;;
48002;SDS011;33768;48.578;11.574;2023-04-03T01:28:30;4.43;;;2.07;;
48002;SDS011;33768;48.578;11.574;2023-04-03T01:31:49;3.80;;;2.00;;
48002;SDS011;33768;48.578;11.574;2023-04-03T01:34:54;5.20;;;2.43;;
48002;SDS011;33768;48.578;11.574;2023-04-03T01:37:58;2.63;;;2.20;;
48002;SDS011;33768;48.578;11.574;2023-04-03T01:41:03;1.97;;;1.77;;
48002;SDS011;33768;48.578;11.574;2023-04-03T01:44:08;3.40;;;2.20;;
48002;SDS011;33768;48.578;11.574;2023-04-03T01:47:11;5.87;;;2.57;;
48002;SDS011;33768;48.578;11.574;2023-04-03T01:50:17;3.73;;;2.30;;
48002;SDS011;33768;48.578;11.574;2023-04-03T01:53:22;3.07;;;2.30;;
48002;SDS011;33768;48.578;11.574;2023-04-03T01:56:26;3.30;;;2.50;;
48002;SDS011;33768;48.578;11.574;2023-04-03T01:59:31;2.83;;;2.00;;
48002;SDS011;33768;48.578;11.574;2023-04-03T02:02:35;3.73;;;2.30;;
48002;SDS011;33768;48.578;11.574;2023-04-03T02:05:38;2.70;;;2.30;;
48002;SDS011;33768;48.578;11.574;2023-04-03T02:08:43;2.97;;;2.33;;
48002;SDS011;33768;48.578;11.574;2023-04-03T02:11:47;2.27;;;2.00;;
48002;SDS011;33768;48.578;11.574;2023-04-03T02:14:51;2.70;;;2.50;;
48002;SDS011;33768;48.578;11.574;2023-04-03T02:17:55;3.57;;;2.33;;
48002;SDS011;33768;48.578;11.574;2023-04-03T02:20:59;4.40;;;2.73;;
48002;SDS011;33768;48.578;11.574;2023-04-03T02:24:03;4.27;;;2.40;;
48002;SDS011;33768;48.578;11.574;2023-04-03T02:27:07;3.10;;;2.37;;
48002;SDS011;33768;48.578;11.574;2023-04-03T02:30:12;3.60;;;2.63;;
48002;SDS011;33768;48.578;11.574;2023-04-03T02:33:18;2.90;;;2.53;;
48002;SDS011;33768;48.578;11.574;2023-04-03T02:36:22;3.43;;;2.40;;
48002;SDS011;33768;48.578;11.574;2023-04-03T02:39:31;3.10;;;2.57;;
48002;SDS011;33768;48.578;11.574;2023-04-03T02:42:37;2.90;;;2.40;;
48002;SDS011;33768;48.578;11.574;2023-04-03T02:45:41;4.07;;;2.80;;
48002;SDS011;33768;48.578;11.574;2023-04-03T02:48:45;3.00;;;2.50;;
48002;SDS011;33768;48.578;11.574;2023-04-03T02:51:49;2.60;;;2.40;;
48002;SDS011;33768;48.578;11.574;2023-04-03T02:54:55;3.83;;;2.83;;
48002;SDS011;33768;48.578;11.574;2023-04-03T02:57:59;4.00;;;2.67;;
48002;SDS011;33768;48.578;11.574;2023-04-03T03:01:03;4.27;;;2.90;;
48002;SDS011;33768;48.578;11.574;2023-04-03T03:51:52;3.40;;;2.50;;
48002;SDS011;33768;48.578;11.574;2023-04-03T03:55:51;2.93;;;2.33;;
48002;SDS011;33768;48.578;11.574;2023-04-03T03:59:18;4.77;;;2.37;;
48002;SDS011;33768;48.578;11.574;2023-04-03T04:02:23;2.80;;;2.30;;
48002;SDS011;33768;48.578;11.574;2023-04-03T04:05:29;5.57;;;2.63;;
48002;SDS011;33768;48.578;11.574;2023-04-03T04:08:35;4.57;;;2.30;;
48002;SDS011;33768;48.578;11.574;2023-04-03T04:11:39;4.90;;;2.67;;
48002;SDS011;33768;48.578;11.574;2023-04-03T04:14:44;3.87;;;2.53;;
48002;SDS011;33768;48.578;11.574;2023-04-03T04:17:51;4.10;;;2.93;;
48002;SDS011;33768;48.578;11.574;2023-04-03T04:20:56;4.87;;;2.63;;
48002;SDS011;33768;48.578;11.574;2023-04-03T04:24:00;5.33;;;2.53;;
48002;SDS011;33768;48.578;11.574;2023-04-03T05:01:18;5.30;;;3.30;;
48002;SDS011;33768;48.578;11.574;2023-04-03T05:04:32;3.83;;;3.40;;
48002;SDS011;33768;48.578;11.574;2023-04-03T05:07:47;6.07;;;3.93;;
48002;SDS011;33768;48.578;11.574;2023-04-03T05:12:07;5.17;;;3.30;;
48002;SDS011;33768;48.578;11.574;2023-04-03T05:15:30;3.50;;;3.10;;
48002;SDS011;33768;48.578;11.574;2023-04-03T05:18:34;6.73;;;3.30;;
48002;SDS011;33768;48.578;11.574;2023-04-03T05:21:43;7.07;;;3.50;;
48002;SDS011;33768;48.578;11.574;2023-04-03T05:24:51;4.97;;;3.63;;
48002;SDS011;33768;48.578;11.574;2023-04-03T05:27:57;5.03;;;3.40;;
48002;SDS011;33768;48.578;11.574;2023-04-03T05:31:02;11.03;;;3.60;;
48002;SDS011;33768;48.578;11.574;2023-04-03T05:34:11;5.77;;;3.80;;
48002;SDS011;33768;48.578;11.574;2023-04-03T05:37:17;4.33;;;3.60;;
48002;SDS011;33768;48.578;11.574;2023-04-03T05:40:21;6.87;;;3.40;;
48002;SDS011;33768;48.578;11.574;2023-04-03T05:43:31;4.70;;;2.93;;
48002;SDS011;33768;48.578;11.574;2023-04-03T05:47:45;3.97;;;3.13;;
48002;SDS011;33768;48.578;11.574;2023-04-03T05:53:42;8.80;;;3.47;;
48002;SDS011;33768;48.578;11.574;2023-04-03T06:08:18;6.03;;;3.10;;
48002;SDS011;33768;48.578;11.574;2023-04-03T06:42:44;5.50;;;2.70;;
48002;SDS011;33768;48.578;11.574;2023-04-03T06:46:15;3.23;;;2.90;;
48002;SDS011;33768;48.578;11.574;2023-04-03T06:49:26;4.13;;;2.87;;
48002;SDS011;33768;48.578;11.574;2023-04-03T06:57:16;5.13;;;3.47;;
48002;SDS011;33768;48.578;11.574;2023-04-03T07:01:21;5.77;;;3.37;;
48002;SDS011;33768;48.578;11.574;2023-04-03T07:04:26;6.17;;;3.23;;
48002;SDS011;33768;48.578;11.574;2023-04-03T07:07:30;3.83;;;3.00;;
48002;SDS011;33768;48.578;11.574;2023-04-03T07:10:34;3.60;;;3.10;;
48002;SDS011;33768;48.578;11.574;2023-04-03T07:13:38;5.43;;;3.10;;
48002;SDS011;33768;48.578;11.574;2023-04-03T07:16:43;4.77;;;3.00;;
48002;SDS011;33768;48.578;11.574;2023-04-03T07:19:47;3.73;;;2.80;;
48002;SDS011;33768;48.578;11.574;2023-04-03T07:22:51;5.00;;;3.10;;
48002;SDS011;33768;48.578;11.574;2023-04-03T07:26:00;4.53;;;3.63;;
48002;SDS011;33768;48.578;11.574;2023-04-03T07:29:26;4.73;;;3.30;;
48002;SDS011;33768;48.578;11.574;2023-04-03T07:40:25;5.10;;;2.97;;
48002;SDS011;33768;48.578;11.574;2023-04-03T07:43:36;3.83;;;3.37;;
48002;SDS011;33768;48.578;11.574;2023-04-03T07:46:47;6.87;;;3.30;;
48002;SDS011;33768;48.578;11.574;2023-04-03T07:49:52;6.07;;;3.57;;
48002;SDS011;33768;48.578;11.574;2023-04-03T07:52:59;4.37;;;3.27;;
48002;SDS011;33768;48.578;11.574;2023-04-03T07:56:17;11.13;;;4.23;;
48002;SDS011;33768;48.578;11.574;2023-04-03T07:59:25;8.53;;;3.50;;
48002;SDS011;33768;48.578;11.574;2023-04-03T08:02:33;6.87;;;3.60;;
48002;SDS011;33768;48.578;11.574;2023-04-03T08:05:41;8.67;;;3.97;;
48002;SDS011;33768;48.578;11.574;2023-04-03T08:08:47;9.83;;;4.00;;
48002;SDS011;33768;48.578;11.574;2023-04-03T08:11:51;5.17;;;3.40;;
48002;SDS011;33768;48.578;11.574;2023-04-03T08:15:05;3.27;;;2.60;;
48002;SDS011;33768;48.578;11.574;2023-04-03T08:18:22;4.33;;;2.90;;
48002;SDS011;33768;48.578;11.574;2023-04-03T08:21:31;6.60;;;3.20;;
48002;SDS011;33768;48.578;11.574;2023-04-03T08:24:35;4.17;;;3.10;;
48002;SDS011;33768;48.578;11.574;2023-04-03T08:28:00;4.13;;;3.20;;
48002;SDS011;33768;48.578;11.574;2023-04-03T08:31:10;7.33;;;3.67;;
48002;SDS011;33768;48.578;11.574;2023-04-03T08:34:22;3.80;;;2.93;;
48002;SDS011;33768;48.578;11.574;2023-04-03T08:37:27;6.17;;;3.40;;
48002;SDS011;33768;48.578;11.574;2023-04-03T08:40:35;5.27;;;3.07;;
48002;SDS011;33768;48.578;11.574;2023-04-03T08:44:26;4.43;;;2.80;;
48002;SDS011;33768;48.578;11.574;2023-04-03T08:50:47;6.63;;;3.40;;
48002;SDS011;33768;48.578;11.574;2023-04-03T08:54:03;6.47;;;3.80;;
48002;SDS011;33768;48.578;11.574;2023-04-03T08:57:15;6.10;;;3.40;;
48002;SDS011;33768;48.578;11.574;2023-04-03T09:00:31;5.50;;;3.20;;
48002;SDS011;33768;48.578;11.574;2023-04-03T09:03:54;5.43;;;3.03;;
48002;SDS011;33768;48.578;11.574;2023-04-03T09:07:02;6.43;;;3.17;;
48002;SDS011;33768;48.578;11.574;2023-04-03T09:10:12;5.60;;;3.33;;
48002;SDS011;33768;48.578;11.574;2023-04-03T09:13:24;3.67;;;3.00;;
48002;SDS011;33768;48.578;11.574;2023-04-03T09:16:48;3.87;;;2.37;;
48002;SDS011;33768;48.578;11.574;2023-04-03T09:19:58;4.47;;;2.57;;
48002;SDS011;33768;48.578;11.574;2023-04-03T09:26:34;4.77;;;2.50;;
48002;SDS011;33768;48.578;11.574;2023-04-03T09:29:43;4.57;;;2.80;;
48002;SDS011;33768;48.578;11.574;2023-04-03T09:32:50;4.23;;;2.97;;
48002;SDS011;33768;48.578;11.574;2023-04-03T09:35:56;2.87;;;2.53;;
48002;SDS011;33768;48.578;11.574;2023-04-03T09:39:04;5.33;;;2.87;;
48002;SDS011;33768;48.578;11.574;2023-04-03T09:42:14;3.70;;;2.60;;
48002;SDS011;33768;48.578;11.574;2023-04-03T09:45:33;6.37;;;3.03;;
48002;SDS011;33768;48.578;11.574;2023-04-03T09:48:38;5.97;;;3.40;;
48002;SDS011;33768;48.578;11.574;2023-04-03T09:51:42;7.03;;;2.67;;
48002;SDS011;33768;48.578;11.574;2023-04-03T09:54:47;4.17;;;2.43;;
48002;SDS011;33768;48.578;11.574;2023-04-03T09:57:51;3.77;;;2.57;;
48002;SDS011;33768;48.578;11.574;2023-04-03T10:00:57;6.17;;;2.30;;
48002;SDS011;33768;48.578;11.574;2023-04-03T10:04:13;5.60;;;2.60;;
48002;SDS011;33768;48.578;11.574;2023-04-03T10:07:33;3.43;;;2.03;;
48002;SDS011;33768;48.578;11.574;2023-04-03T10:10:47;4.80;;;2.57;;
48002;SDS011;33768;48.578;11.574;2023-04-03T10:13:56;5.73;;;2.80;;
48002;SDS011;33768;48.578;11.574;2023-04-03T10:23:42;4.50;;;2.40;;
48002;SDS011;33768;48.578;11.574;2023-04-03T10:26:56;3.63;;;1.83;;
48002;SDS011;33768;48.578;11.574;2023-04-03T10:33:37;3.80;;;2.30;;
48002;SDS011;33768;48.578;11.574;2023-04-03T10:37:01;4.77;;;2.00;;
48002;SDS011;33768;48.578;11.574;2023-04-03T10:44:47;4.40;;;2.07;;
48002;SDS011;33768;48.578;11.574;2023-04-03T10:47:51;2.77;;;1.93;;
48002;SDS011;33768;48.578;11.574;2023-04-03T10:54:38;2.77;;;1.80;;
48002;SDS011;33768;48.578;11.574;2023-04-03T10:57:44;3.13;;;2.00;;
48002;SDS011;33768;48.578;11.574;2023-04-03T11:00:50;2.67;;;2.00;;
48002;SDS011;33768;48.578;11.574;2023-04-03T11:03:58;3.53;;;2.20;;
48002;SDS011;33768;48.578;11.574;2023-04-03T11:07:08;3.37;;;1.80;;
48002;SDS011;33768;48.578;11.574;2023-04-03T11:10:21;2.67;;;1.67;;
48002;SDS011;33768;48.578;11.574;2023-04-03T11:13:34;6.80;;;1.90;;
48002;SDS011;33768;48.578;11.574;2023-04-03T11:16:46;1.83;;;1.40;;
48002;SDS011;33768;48.578;11.574;2023-04-03T11:23:21;1.80;;;1.60;;
48002;SDS011;33768;48.578;11.574;2023-04-03T11:26:34;3.70;;;1.90;;
48002;SDS011;33768;48.578;11.574;2023-04-03T11:29:42;2.53;;;1.70;;
48002;SDS011;33768;48.578;11.574;2023-04-03T11:33:05;2.67;;;1.83;;
48002;SDS011;33768;48.578;11.574;2023-04-03T11:36:32;2.47;;;1.63;;
48002;SDS011;33768;48.578;11.574;2023-04-03T11:39:46;3.93;;;1.70;;
48002;SDS011;33768;48.578;11.574;2023-04-03T11:46:04;3.43;;;1.50;;
48002;SDS011;33768;48.578;11.574;2023-04-03T11:55:57;5.53;;;3.10;;
48002;SDS011;33768;48.578;11.574;2023-04-03T12:02:34;4.10;;;2.30;;
48002;SDS011;33768;48.578;11.574;2023-04-03T12:05:40;6.47;;;1.73;;
48002;SDS011;33768;48.578;11.574;2023-04-03T12:08:46;3.63;;;2.10;;
48002;SDS011;33768;48.578;11.574;2023-04-03T12:11:53;2.13;;;1.50;;
48002;SDS011;33768;48.578;11.574;2023-04-03T12:15:18;3.30;;;2.57;;
48002;SDS011;33768;48.578;11.574;2023-04-03T12:18:41;2.40;;;1.20;;
48002;SDS011;33768;48.578;11.574;2023-04-03T12:25:01;12.10;;;2.83;;
48002;SDS011;33768;48.578;11.574;2023-04-03T12:28:51;3.73;;;1.63;;
48002;SDS011;33768;48.578;11.574;2023-04-03T12:42:22;1.97;;;1.27;;
48002;SDS011;33768;48.578;11.574;2023-04-03T12:45:50;1.87;;;1.07;;
48002;SDS011;33768;48.578;11.574;2023-04-03T12:48:59;3.77;;;1.20;;
48002;SDS011;33768;48.578;11.574;2023-04-03T12:52:17;1.30;;;1.20;;
48002;SDS011;33768;48.578;11.574;2023-04-03T12:55:28;2.67;;;1.03;;
48002;SDS011;33768;48.578;11.574;2023-04-03T12:58:33;2.33;;;1.37;;
48002;SDS011;33768;48.578;11.574;2023-04-03T13:01:37;1.00;;;0.80;;
48002;SDS011;33768;48.578;11.574;2023-04-03T13:04:41;2.17;;;1.20;;
48002;SDS011;33768;48.578;11.574;2023-04-03T13:07:49;2.20;;;1.00;;
48002;SDS011;33768;48.578;11.574;2023-04-03T13:11:06;1.83;;;1.03;;
48002;SDS011;33768;48.578;11.574;2023-04-03T13:14:15;3.93;;;1.00;;
48002;SDS011;33768;48.578;11.574;2023-04-03T13:17:22;1.73;;;1.10;;
48002;SDS011;33768;48.578;11.574;2023-04-03T13:20:31;2.20;;;1.17;;
48002;SDS011;33768;48.578;11.574;2023-04-03T13:23:38;2.40;;;1.20;;
48002;SDS011;33768;48.578;11.574;2023-04-03T13:26:48;4.57;;;1.53;;
48002;SDS011;33768;48.578;11.574;2023-04-03T13:29:57;1.77;;;1.17;;
48002;SDS011;33768;48.578;11.574;2023-04-03T13:33:04;2.50;;;1.20;;
48002;SDS011;33768;48.578;11.574;2023-04-03T13:36:23;5.13;;;1.27;;
48002;SDS011;33768;48.578;11.574;2023-04-03T13:39:32;2.10;;;1.27;;
48002;SDS011;33768;48.578;11.574;2023-04-03T13:42:39;3.77;;;1.17;;
48002;SDS011;33768;48.578;11.574;2023-04-03T13:49:20;2.73;;;1.50;;
48002;SDS011;33768;48.578;11.574;2023-04-03T13:52:33;3.53;;;1.07;;
48002;SDS011;33768;48.578;11.574;2023-04-03T14:02:31;1.80;;;1.10;;
48002;SDS011;33768;48.578;11.574;2023-04-03T14:05:40;1.70;;;1.00;;
48002;SDS011;33768;48.578;11.574;2023-04-03T14:08:45;2.83;;;1.17;;
48002;SDS011;33768;48.578;11.574;2023-04-03T14:11:51;2.67;;;1.10;;
48002;SDS011;33768;48.578;11.574;2023-04-03T14:15:03;1.73;;;1.20;;
48002;SDS011;33768;48.578;11.574;2023-04-03T14:18:16;1.97;;;1.40;;
48002;SDS011;33768;48.578;11.574;2023-04-03T14:21:23;4.70;;;1.50;;
48002;SDS011;33768;48.578;11.574;2023-04-03T14:24:27;2.83;;;1.50;;
48002;SDS011;33768;48.578;11.574;2023-04-03T14:27:36;2.27;;;1.20;;
48002;SDS011;33768;48.578;11.574;2023-04-03T14:30:45;1.70;;;1.20;;
48002;SDS011;33768;48.578;11.574;2023-04-03T14:33:50;1.40;;;1.10;;
48002;SDS011;33768;48.578;11.574;2023-04-03T14:36:54;4.23;;;1.30;;
48002;SDS011;33768;48.578;11.574;2023-04-03T14:39:59;1.40;;;1.20;;
48002;SDS011;33768;48.578;11.574;2023-04-03T14:43:05;2.23;;;1.30;;
48002;SDS011;33768;48.578;11.574;2023-04-03T14:46:14;3.80;;;1.30;;
48002;SDS011;33768;48.578;11.574;2023-04-03T14:49:26;2.13;;;1.60;;
48002;SDS011;33768;48.578;11.574;2023-04-03T14:52:34;5.37;;;1.60;;
48002;SDS011;33768;48.578;11.574;2023-04-03T14:55:39;3.30;;;1.60;;
48002;SDS011;33768;48.578;11.574;2023-04-03T14:58:49;5.30;;;1.80;;
48002;SDS011;33768;48.578;11.574;2023-04-03T15:01:56;2.10;;;1.30;;
48002;SDS011;33768;48.578;11.574;2023-04-03T15:05:01;3.50;;;1.50;;
48002;SDS011;33768;48.578;11.574;2023-04-03T15:08:11;5.43;;;1.20;;
48002;SDS011;33768;48.578;11.574;2023-04-03T15:11:25;3.37;;;1.40;;
48002;SDS011;33768;48.578;11.574;2023-04-03T15:14:30;3.63;;;1.77;;
48002;SDS011;33768;48.578;11.574;2023-04-03T15:17:34;2.47;;;1.60;;
48002;SDS011;33768;48.578;11.574;2023-04-03T15:20:39;5.13;;;1.83;;
48002;SDS011;33768;48.578;11.574;2023-04-03T15:23:44;2.17;;;1.50;;
48002;SDS011;33768;48.578;11.574;2023-04-03T15:26:48;3.67;;;2.33;;
48002;SDS011;33768;48.578;11.574;2023-04-03T15:29:53;2.33;;;1.40;;
48002;SDS011;33768;48.578;11.574;2023-04-03T15:32:57;2.97;;;1.50;;
48002;SDS011;33768;48.578;11.574;2023-04-03T15:36:02;3.83;;;1.37;;
48002;SDS011;33768;48.578;11.574;2023-04-03T15:39:07;4.23;;;1.37;;
48002;SDS011;33768;48.578;11.574;2023-04-03T15:42:11;4.70;;;2.00;;
48002;SDS011;33768;48.578;11.574;2023-04-03T15:45:16;2.83;;;1.67;;
48002;SDS011;33768;48.578;11.574;2023-04-03T15:48:20;6.20;;;2.13;;
48002;SDS011;33768;48.578;11.574;2023-04-03T15:51:24;4.10;;;1.50;;
48002;SDS011;33768;48.578;11.574;2023-04-03T15:54:28;4.27;;;1.40;;
48002;SDS011;33768;48.578;11.574;2023-04-03T15:57:33;2.37;;;1.47;;
48002;SDS011;33768;48.578;11.574;2023-04-03T16:00:37;3.47;;;1.40;;
48002;SDS011;33768;48.578;11.574;2023-04-03T16:03:42;3.10;;;1.40;;
48002;SDS011;33768;48.578;11.574;2023-04-03T16:06:49;3.93;;;1.60;;
48002;SDS011;33768;48.578;11.574;2023-04-03T16:09:53;3.53;;;1.40;;
48002;SDS011;33768;48.578;11.574;2023-04-03T16:12:57;5.80;;;1.63;;
48002;SDS011;33768;48.578;11.574;2023-04-03T16:16:01;4.27;;;1.90;;
48002;SDS011;33768;48.578;11.574;2023-04-03T16:19:06;4.10;;;1.40;;
48002;SDS011;33768;48.578;11.574;2023-04-03T16:22:13;9.53;;;1.60;;
48002;SDS011;33768;48.578;11.574;2023-04-03T16:25:17;3.17;;;1.70;;
48002;SDS011;33768;48.578;11.574;2023-04-03T16:28:21;4.17;;;2.50;;
48002;SDS011;33768;48.578;11.574;2023-04-03T16:31:25;2.43;;;1.60;;
48002;SDS011;33768;48.578;11.574;2023-04-03T16:34:32;2.43;;;1.23;;
48002;SDS011;33768;48.578;11.574;2023-04-03T16:44:15;3.70;;;1.50;;
48002;SDS011;33768;48.578;11.574;2023-04-03T16:52:45;3.30;;;1.43;;
48002;SDS011;33768;48.578;11.574;2023-04-03T16:55:50;3.23;;;1.30;;
48002;SDS011;33768;48.578;11.574;2023-04-03T16:58:55;3.03;;;1.30;;
48002;SDS011;33768;48.578;11.574;2023-04-03T17:02:02;1.73;;;1.27;;
48002;SDS011;33768;48.578;11.574;2023-04-03T17:05:06;5.13;;;1.30;;
48002;SDS011;33768;48.578;11.574;2023-04-03T17:08:10;3.47;;;1.37;;
48002;SDS011;33768;48.578;11.574;2023-04-03T17:45:28;1.27;;;1.17;;
48002;SDS011;33768;48.578;11.574;2023-04-03T17:48:33;2.30;;;1.30;;
48002;SDS011;33768;48.578;11.574;2023-04-03T17:51:38;2.90;;;1.77;;
48002;SDS011;33768;48.578;11.574;2023-04-03T17:54:42;1.80;;;1.40;;
48002;SDS011;33768;48.578;11.574;2023-04-03T17:57:47;5.70;;;2.00;;
48002;SDS011;33768;48.578;11.574;2023-04-03T18:05:03;5.57;;;3.33;;
48002;SDS011;33768;48.578;11.574;2023-04-03T18:08:07;4.97;;;2.40;;
48002;SDS011;33768;48.578;11.574;2023-04-03T18:16:19;3.87;;;2.20;;
48002;SDS011;33768;48.578;11.574;2023-04-03T18:33:23;5.37;;;2.60;;
48002;SDS011;33768;48.578;11.574;2023-04-03T18:36:58;2.53;;;1.90;;
48002;SDS011;33768;48.578;11.574;2023-04-03T18:46:01;3.17;;;1.60;;
48002;SDS011;33768;48.578;11.574;2023-04-03T18:49:09;2.33;;;1.60;;
48002;SDS011;33768;48.578;11.574;2023-04-03T18:52:15;2.50;;;1.50;;
48002;SDS011;33768;48.578;11.574;2023-04-03T18:55:19;4.27;;;2.23;;
48002;SDS011;33768;48.578;11.574;2023-04-03T18:58:23;3.60;;;2.03;;
48002;SDS011;33768;48.578;11.574;2023-04-03T19:17:16;2.20;;;1.60;;
48002;SDS011;33768;48.578;11.574;2023-04-03T19:20:20;3.07;;;2.27;;
48002;SDS011;33768;48.578;11.574;2023-04-03T19:23:25;4.20;;;2.10;;
48002;SDS011;33768;48.578;11.574;2023-04-03T19:26:29;3.10;;;1.93;;
48002;SDS011;33768;48.578;11.574;2023-04-03T19:29:33;2.03;;;1.70;;
48002;SDS011;33768;48.578;11.574;2023-04-03T19:32:38;3.10;;;1.70;;
48002;SDS011;33768;48.578;11.574;2023-04-03T19:35:42;2.03;;;1.70;;
48002;SDS011;33768;48.578;11.574;2023-04-03T19:38:46;2.67;;;2.07;;
48002;SDS011;33768;48.578;11.574;2023-04-03T19:41:50;3.63;;;1.60;;
48002;SDS011;33768;48.578;11.574;2023-04-03T19:44:55;4.93;;;1.77;;
48002;SDS011;33768;48.578;11.574;2023-04-03T19:47:59;2.80;;;1.87;;
48002;SDS011;33768;48.578;11.574;2023-04-03T19:51:04;4.33;;;2.73;;
48002;SDS011;33768;48.578;11.574;2023-04-03T19:54:08;3.27;;;2.33;;
48002;SDS011;33768;48.578;11.574;2023-04-03T19:57:13;3.87;;;1.90;;
48002;SDS011;33768;48.578;11.574;2023-04-03T20:00:18;2.30;;;1.80;;
48002;SDS011;33768;48.578;11.574;2023-04-03T20:03:23;3.07;;;1.87;;
48002;SDS011;33768;48.578;11.574;2023-04-03T20:06:27;2.67;;;1.80;;
48002;SDS011;33768;48.578;11.574;2023-04-03T20:09:32;3.57;;;1.73;;
48002;SDS011;33768;48.578;11.574;2023-04-03T20:12:37;2.57;;;1.87;;
48002;SDS011;33768;48.578;11.574;2023-04-03T20:15:42;3.03;;;1.97;;
48002;SDS011;33768;48.578;11.574;2023-04-03T20:18:47;6.43;;;2.00;;
48002;SDS011;33768;48.578;11.574;2023-04-03T20:21:52;4.30;;;2.17;;
48002;SDS011;33768;48.578;11.574;2023-04-03T20:24:57;5.07;;;2.33;;
48002;SDS011;33768;48.578;11.574;2023-04-03T20:28:01;3.10;;;2.30;;
48002;SDS011;33768;48.578;11.574;2023-04-03T20:31:05;7.30;;;2.27;;
48002;SDS011;33768;48.578;11.574;2023-04-03T20:34:10;4.70;;;2.00;;
48002;SDS011;33768;48.578;11.574;2023-04-03T20:37:14;4.30;;;2.07;;
48002;SDS011;33768;48.578;11.574;2023-04-03T20:40:24;3.07;;;1.80;;
48002;SDS011;33768;48.578;11.574;2023-04-03T20:43:29;4.23;;;2.23;;
48002;SDS011;33768;48.578;11.574;2023-04-03T20:46:33;3.27;;;1.90;;
48002;SDS011;33768;48.578;11.574;2023-04-03T20:49:37;2.40;;;1.90;;
48002;SDS011;33768;48.578;11.574;2023-04-03T20:52:42;4.33;;;1.87;;
48002;SDS011;33768;48.578;11.574;2023-04-03T20:55:55;2.40;;;1.87;;
48002;SDS011;33768;48.578;11.574;2023-04-03T20:59:02;4.03;;;2.23;;
48002;SDS011;33768;48.578;11.574;2023-04-03T21:02:08;5.43;;;2.10;;
48002;SDS011;33768;48.578;11.574;2023-04-03T21:05:14;2.27;;;1.87;;
48002;SDS011;33768;48.578;11.574;2023-04-03T21:19:13;3.90;;;1.93;;
48002;SDS011;33768;48.578;11.574;2023-04-03T21:22:20;7.00;;;3.57;;
48002;SDS011;33768;48.578;11.574;2023-04-03T21:25:26;4.90;;;2.73;;
48002;SDS011;33768;48.578;11.574;2023-04-03T21:28:30;3.60;;;2.40;;
48002;SDS011;33768;48.578;11.574;2023-04-03T21:35:01;3.40;;;2.03;;
48002;SDS011;33768;48.578;11.574;2023-04-03T21:38:05;4.07;;;1.87;;
48002;SDS011;33768;48.578;11.574;2023-04-03T21:41:09;5.47;;;1.90;;
48002;SDS011;33768;48.578;11.574;2023-04-03T21:44:13;4.20;;;2.00;;
48002;SDS011;33768;48.578;11.574;2023-04-03T21:47:18;3.77;;;2.03;;
48002;SDS011;33768;48.578;11.574;2023-04-03T21:50:22;4.17;;;2.17;;
48002;SDS011;33768;48.578;11.574;2023-04-03T21:53:26;4.33;;;1.97;;
48002;SDS011;33768;48.578;11.574;2023-04-03T21:56:33;4.80;;;2.30;;
48002;SDS011;33768;48.578;11.574;2023-04-03T21:59:37;3.57;;;1.87;;
48002;SDS011;33768;48.578;11.574;2023-04-03T22:02:41;4.23;;;1.90;;
48002;SDS011;33768;48.578;11.574;2023-04-03T22:05:45;3.30;;;1.83;;
48002;SDS011;33768;48.578;11.574;2023-04-03T22:08:49;2.10;;;1.80;;
48002;SDS011;33768;48.578;11.574;2023-04-03T22:11:54;3.67;;;2.10;;
48002;SDS011;33768;48.578;11.574;2023-04-03T22:14:58;3.43;;;2.27;;
48002;SDS011;33768;48.578;11.574;2023-04-03T22:18:04;4.50;;;1.90;;
48002;SDS011;33768;48.578;11.574;2023-04-03T22:21:08;3.77;;;2.30;;
48002;SDS011;33768;48.578;11.574;2023-04-03T22:24:13;3.87;;;1.70;;
48002;SDS011;33768;48.578;11.574;2023-04-03T22:27:19;3.67;;;2.03;;
48002;SDS011;33768;48.578;11.574;2023-04-03T22:30:23;5.97;;;1.87;;
48002;SDS011;33768;48.578;11.574;2023-04-03T22:33:27;6.03;;;2.03;;
48002;SDS011;33768;48.578;11.574;2023-04-03T22:36:31;5.83;;;2.40;;
48002;SDS011;33768;48.578;11.574;2023-04-03T22:39:36;2.67;;;2.00;;
48002;SDS011;33768;48.578;11.574;2023-04-03T22:42:40;5.03;;;2.33;;
48002;SDS011;33768;48.578;11.574;2023-04-03T22:45:47;3.90;;;2.20;;
48002;SDS011;33768;48.578;11.574;2023-04-03T22:48:52;3.67;;;2.30;;
48002;SDS011;33768;48.578;11.574;2023-04-03T22:51:56;3.47;;;2.30;;
48002;SDS011;33768;48.578;11.574;2023-04-03T22:55:01;4.17;;;2.20;;
48002;SDS011;33768;48.578;11.574;2023-04-03T22:58:05;4.00;;;2.40;;
48002;SDS011;33768;48.578;11.574;2023-04-03T23:01:10;3.13;;;2.10;;
48002;SDS011;33768;48.578;11.574;2023-04-03T23:04:14;4.43;;;2.37;;
48002;SDS011;33768;48.578;11.574;2023-04-03T23:07:18;3.77;;;2.20;;
48002;SDS011;33768;48.578;11.574;2023-04-03T23:10:23;2.87;;;2.03;;
48002;SDS011;33768;48.578;11.574;2023-04-03T23:13:27;5.23;;;2.20;;
48002;SDS011;33768;48.578;11.574;2023-04-03T23:16:31;3.90;;;2.00;;
48002;SDS011;33768;48.578;11.574;2023-04-03T23:19:35;3.37;;;2.03;;
48002;SDS011;33768;48.578;11.574;2023-04-03T23:22:41;5.97;;;2.00;;
48002;SDS011;33768;48.578;11.574;2023-04-03T23:25:50;5.03;;;2.50;;
48002;SDS011;33768;48.578;11.574;2023-04-03T23:28:54;4.70;;;2.20;;
48002;SDS011;33768;48.578;11.574;2023-04-03T23:31:59;3.97;;;2.27;;
48002;SDS011;33768;48.578;11.574;2023-04-03T23:35:03;2.83;;;2.13;;
48002;SDS011;33768;48.578;11.574;2023-04-03T23:38:07;2.97;;;2.10;;
48002;SDS011;33768;48.578;11.574;2023-04-03T23:41:12;3.50;;;2.30;;
48002;SDS011;33768;48.578;11.574;2023-04-03T23:44:15;6.33;;;2.00;;
48002;SDS011;33768;48.578;11.574;2023-04-03T23:47:20;2.80;;;2.07;;
48002;SDS011;33768;48.578;11.574;2023-04-03T23:50:24;4.60;;;2.00;;